sensor_id;sensor_type;location;lat;lon;timestamp;temperature;humidity
13707;DHT22;6925;47.816;13.072;2023-12-14T00:02:07;7.30;97.00
13707;DHT22;6925;47.816;13.072;2023-12-14T00:04:35;7.30;97.10
13707;DHT22;6925;47.816;13.072;2023-12-14T00:07:03;7.30;97.10
13707;DHT22;6925;47.816;13.072;2023-12-14T00:09:30;7.30;96.80
13707;DHT22;6925;47.816;13.072;2023-12-14T00:11:57;7.20;97.00
13707;DHT22;6925;47.816;13.072;2023-12-14T00:14:24;7.20;96.90
13707;DHT22;6925;47.816;13.072;2023-12-14T00:16:51;7.20;96.90
13707;DHT22;6925;47.816;13.072;2023-12-14T00:19:18;7.20;96.90
13707;DHT22;6925;47.816;13.072;2023-12-14T00:21:47;7.20;97.20
13707;DHT22;6925;47.816;13.072;2023-12-14T00:24:14;7.20;97.10
13707;DHT22;6925;47.816;13.072;2023-12-14T00:26:41;7.20;97.10
13707;DHT22;6925;47.816;13.072;2023-12-14T00:29:08;7.20;97.30
13707;DHT22;6925;47.816;13.072;2023-12-14T00:31:35;7.30;97.20
13707;DHT22;6925;47.816;13.072;2023-12-14T00:34:02;7.30;97.30
13707;DHT22;6925;47.816;13.072;2023-12-14T00:36:29;7.30;97.00
13707;DHT22;6925;47.816;13.072;2023-12-14T00:38:58;7.30;96.80
13707;DHT22;6925;47.816;13.072;2023-12-14T00:41:25;7.20;96.40
13707;DHT22;6925;47.816;13.072;2023-12-14T00:43:52;7.10;96.70
13707;DHT22;6925;47.816;13.072;2023-12-14T00:46:19;7.10;96.70
13707;DHT22;6925;47.816;13.072;2023-12-14T00:48:46;7.10;96.80
13707;DHT22;6925;47.816;13.072;2023-12-14T00:51:13;7.10;96.70
13707;DHT22;6925;47.816;13.072;2023-12-14T00:53:40;7.00;96.60
13707;DHT22;6925;47.816;13.072;2023-12-14T00:56:09;7.00;96.90
13707;DHT22;6925;47.816;13.072;2023-12-14T00:58:36;7.00;97.00
13707;DHT22;6925;47.816;13.072;2023-12-14T01:01:04;7.00;97.20
13707;DHT22;6925;47.816;13.072;2023-12-14T01:03:31;7.00;97.10
13707;DHT22;6925;47.816;13.072;2023-12-14T01:05:58;7.00;97.30
13707;DHT22;6925;47.816;13.072;2023-12-14T01:08:25;7.00;97.30
13707;DHT22;6925;47.816;13.072;2023-12-14T01:10:52;7.00;97.30
13707;DHT22;6925;47.816;13.072;2023-12-14T01:13:21;7.10;97.40
13707;DHT22;6925;47.816;13.072;2023-12-14T01:15:48;7.10;97.00
13707;DHT22;6925;47.816;13.072;2023-12-14T01:18:15;7.10;97.20
13707;DHT22;6925;47.816;13.072;2023-12-14T01:20:42;7.20;97.30
13707;DHT22;6925;47.816;13.072;2023-12-14T01:23:09;7.20;97.30
13707;DHT22;6925;47.816;13.072;2023-12-14T01:25:37;7.20;97.10
13707;DHT22;6925;47.816;13.072;2023-12-14T01:28:04;7.20;97.00
13707;DHT22;6925;47.816;13.072;2023-12-14T01:30:32;7.10;96.30
13707;DHT22;6925;47.816;13.072;2023-12-14T01:32:59;7.10;96.20
13707;DHT22;6925;47.816;13.072;2023-12-14T01:35:26;7.10;96.30
13707;DHT22;6925;47.816;13.072;2023-12-14T01:37:55;7.10;96.30
13707;DHT22;6925;47.816;13.072;2023-12-14T01:40:22;7.10;96.30
13707;DHT22;6925;47.816;13.072;2023-12-14T01:42:49;7.10;96.40
13707;DHT22;6925;47.816;13.072;2023-12-14T01:45:16;7.10;96.40
13707;DHT22;6925;47.816;13.072;2023-12-14T01:47:45;7.10;96.10
13707;DHT22;6925;47.816;13.072;2023-12-14T01:50:12;7.20;96.10
13707;DHT22;6925;47.816;13.072;2023-12-14T01:52:39;7.20;95.50
13707;DHT22;6925;47.816;13.072;2023-12-14T01:55:07;7.10;95.30
13707;DHT22;6925;47.816;13.072;2023-12-14T01:57:34;7.10;95.80
13707;DHT22;6925;47.816;13.072;2023-12-14T02:00:01;7.10;96.20
13707;DHT22;6925;47.816;13.072;2023-12-14T02:02:29;7.10;96.40
13707;DHT22;6925;47.816;13.072;2023-12-14T02:04:57;7.10;95.70
13707;DHT22;6925;47.816;13.072;2023-12-14T02:07:24;7.10;95.60
13707;DHT22;6925;47.816;13.072;2023-12-14T02:09:51;7.10;95.30
13707;DHT22;6925;47.816;13.072;2023-12-14T02:12:18;7.00;95.60
13707;DHT22;6925;47.816;13.072;2023-12-14T02:14:48;7.10;96.10
13707;DHT22;6925;47.816;13.072;2023-12-14T02:17:15;7.10;96.30
13707;DHT22;6925;47.816;13.072;2023-12-14T02:19:42;7.20;96.20
13707;DHT22;6925;47.816;13.072;2023-12-14T02:22:10;7.20;96.10
13707;DHT22;6925;47.816;13.072;2023-12-14T02:24:39;7.20;96.10
13707;DHT22;6925;47.816;13.072;2023-12-14T02:27:06;7.20;96.10
13707;DHT22;6925;47.816;13.072;2023-12-14T02:29:33;7.20;95.70
13707;DHT22;6925;47.816;13.072;2023-12-14T02:32:00;7.20;95.80
13707;DHT22;6925;47.816;13.072;2023-12-14T02:34:27;7.20;95.90
13707;DHT22;6925;47.816;13.072;2023-12-14T02:36:54;7.20;95.80
13707;DHT22;6925;47.816;13.072;2023-12-14T02:39:21;7.20;96.00
13707;DHT22;6925;47.816;13.072;2023-12-14T02:41:50;7.20;96.20
13707;DHT22;6925;47.816;13.072;2023-12-14T02:44:17;7.20;96.10
13707;DHT22;6925;47.816;13.072;2023-12-14T02:46:44;7.30;96.20
13707;DHT22;6925;47.816;13.072;2023-12-14T02:49:11;7.30;96.00
13707;DHT22;6925;47.816;13.072;2023-12-14T02:51:38;7.30;96.10
13707;DHT22;6925;47.816;13.072;2023-12-14T02:54:05;7.30;96.10
13707;DHT22;6925;47.816;13.072;2023-12-14T02:56:32;7.30;95.90
13707;DHT22;6925;47.816;13.072;2023-12-14T02:59:01;7.30;95.70
13707;DHT22;6925;47.816;13.072;2023-12-14T03:01:28;7.30;95.50
13707;DHT22;6925;47.816;13.072;2023-12-14T03:03:55;7.30;95.50
13707;DHT22;6925;47.816;13.072;2023-12-14T03:06:22;7.30;95.90
13707;DHT22;6925;47.816;13.072;2023-12-14T03:08:49;7.30;95.90
13707;DHT22;6925;47.816;13.072;2023-12-14T03:11:22;7.30;95.40
13707;DHT22;6925;47.816;13.072;2023-12-14T03:13:50;7.30;95.60
13707;DHT22;6925;47.816;13.072;2023-12-14T03:16:19;7.30;95.70
13707;DHT22;6925;47.816;13.072;2023-12-14T03:18:46;7.30;95.90
13707;DHT22;6925;47.816;13.072;2023-12-14T03:21:15;7.30;95.90
13707;DHT22;6925;47.816;13.072;2023-12-14T03:23:42;7.30;95.70
13707;DHT22;6925;47.816;13.072;2023-12-14T03:26:09;7.30;95.40
13707;DHT22;6925;47.816;13.072;2023-12-14T03:28:36;7.30;95.50
13707;DHT22;6925;47.816;13.072;2023-12-14T03:31:03;7.30;95.60
13707;DHT22;6925;47.816;13.072;2023-12-14T03:33:32;7.30;95.20
13707;DHT22;6925;47.816;13.072;2023-12-14T03:35:59;7.30;95.60
13707;DHT22;6925;47.816;13.072;2023-12-14T03:38:26;7.30;95.50
13707;DHT22;6925;47.816;13.072;2023-12-14T03:40:53;7.30;95.70
13707;DHT22;6925;47.816;13.072;2023-12-14T03:43:20;7.30;95.70
13707;DHT22;6925;47.816;13.072;2023-12-14T03:45:47;7.40;95.50
13707;DHT22;6925;47.816;13.072;2023-12-14T03:48:14;7.30;95.40
13707;DHT22;6925;47.816;13.072;2023-12-14T03:50:43;7.30;95.50
13707;DHT22;6925;47.816;13.072;2023-12-14T03:53:10;7.30;95.70
13707;DHT22;6925;47.816;13.072;2023-12-14T03:55:37;7.30;95.20
13707;DHT22;6925;47.816;13.072;2023-12-14T03:58:04;7.30;95.50
13707;DHT22;6925;47.816;13.072;2023-12-14T04:00:32;7.30;95.50
13707;DHT22;6925;47.816;13.072;2023-12-14T04:02:59;7.30;95.50
13707;DHT22;6925;47.816;13.072;2023-12-14T04:05:26;7.30;95.60
13707;DHT22;6925;47.816;13.072;2023-12-14T04:07:54;7.30;95.50
13707;DHT22;6925;47.816;13.072;2023-12-14T04:10:21;7.30;95.50
13707;DHT22;6925;47.816;13.072;2023-12-14T04:12:48;7.30;95.70
13707;DHT22;6925;47.816;13.072;2023-12-14T04:15:16;7.30;95.30
13707;DHT22;6925;47.816;13.072;2023-12-14T04:17:43;7.30;95.30
13707;DHT22;6925;47.816;13.072;2023-12-14T04:20:10;7.20;95.40
13707;DHT22;6925;47.816;13.072;2023-12-14T04:22:41;7.30;95.20
13707;DHT22;6925;47.816;13.072;2023-12-14T04:25:10;7.30;95.30
13707;DHT22;6925;47.816;13.072;2023-12-14T04:27:37;7.30;95.40
13707;DHT22;6925;47.816;13.072;2023-12-14T04:30:05;7.30;95.30
13707;DHT22;6925;47.816;13.072;2023-12-14T04:32:36;7.30;95.20
13707;DHT22;6925;47.816;13.072;2023-12-14T04:35:03;7.30;95.20
13707;DHT22;6925;47.816;13.072;2023-12-14T04:37:31;7.30;95.20
13707;DHT22;6925;47.816;13.072;2023-12-14T04:39:58;7.20;94.70
13707;DHT22;6925;47.816;13.072;2023-12-14T04:42:26;7.10;94.80
13707;DHT22;6925;47.816;13.072;2023-12-14T04:44:54;7.10;95.60
13707;DHT22;6925;47.816;13.072;2023-12-14T04:47:21;7.10;95.70
13707;DHT22;6925;47.816;13.072;2023-12-14T04:49:48;7.10;95.60
13707;DHT22;6925;47.816;13.072;2023-12-14T04:52:15;7.10;95.50
13707;DHT22;6925;47.816;13.072;2023-12-14T04:54:42;7.10;95.80
13707;DHT22;6925;47.816;13.072;2023-12-14T04:57:09;7.20;95.90
13707;DHT22;6925;47.816;13.072;2023-12-14T04:59:38;7.20;96.00
13707;DHT22;6925;47.816;13.072;2023-12-14T05:02:07;7.20;96.10
13707;DHT22;6925;47.816;13.072;2023-12-14T05:04:34;7.20;95.90
13707;DHT22;6925;47.816;13.072;2023-12-14T05:07:02;7.20;95.50
13707;DHT22;6925;47.816;13.072;2023-12-14T05:09:29;7.20;95.80
13707;DHT22;6925;47.816;13.072;2023-12-14T05:11:56;7.10;95.90
13707;DHT22;6925;47.816;13.072;2023-12-14T05:14:23;7.10;95.80
13707;DHT22;6925;47.816;13.072;2023-12-14T05:16:51;7.20;95.50
13707;DHT22;6925;47.816;13.072;2023-12-14T05:19:18;7.20;95.00
13707;DHT22;6925;47.816;13.072;2023-12-14T05:21:46;7.10;95.00
13707;DHT22;6925;47.816;13.072;2023-12-14T05:24:13;7.10;94.90
13707;DHT22;6925;47.816;13.072;2023-12-14T05:26:40;7.00;95.20
13707;DHT22;6925;47.816;13.072;2023-12-14T05:29:07;7.00;95.20
13707;DHT22;6925;47.816;13.072;2023-12-14T05:31:34;7.00;95.50
13707;DHT22;6925;47.816;13.072;2023-12-14T05:34:03;7.00;96.00
13707;DHT22;6925;47.816;13.072;2023-12-14T05:36:30;7.00;95.80
13707;DHT22;6925;47.816;13.072;2023-12-14T05:38:57;7.10;95.70
13707;DHT22;6925;47.816;13.072;2023-12-14T05:41:24;7.00;95.50
13707;DHT22;6925;47.816;13.072;2023-12-14T05:43:51;7.10;95.70
13707;DHT22;6925;47.816;13.072;2023-12-14T05:46:22;7.10;95.50
13707;DHT22;6925;47.816;13.072;2023-12-14T05:48:49;7.00;95.70
13707;DHT22;6925;47.816;13.072;2023-12-14T05:51:27;7.10;95.80
13707;DHT22;6925;47.816;13.072;2023-12-14T05:53:55;7.10;95.50
13707;DHT22;6925;47.816;13.072;2023-12-14T05:56:22;7.00;95.40
13707;DHT22;6925;47.816;13.072;2023-12-14T05:58:49;7.00;95.10
13707;DHT22;6925;47.816;13.072;2023-12-14T06:01:17;6.90;95.60
13707;DHT22;6925;47.816;13.072;2023-12-14T06:03:44;7.00;95.30
13707;DHT22;6925;47.816;13.072;2023-12-14T06:06:12;6.90;95.40
13707;DHT22;6925;47.816;13.072;2023-12-14T06:08:41;6.90;95.60
13707;DHT22;6925;47.816;13.072;2023-12-14T06:11:09;7.00;95.50
13707;DHT22;6925;47.816;13.072;2023-12-14T06:13:36;7.00;95.50
13707;DHT22;6925;47.816;13.072;2023-12-14T06:16:04;7.10;95.40
13707;DHT22;6925;47.816;13.072;2023-12-14T06:18:32;7.10;95.50
13707;DHT22;6925;47.816;13.072;2023-12-14T06:20:59;7.10;95.50
13707;DHT22;6925;47.816;13.072;2023-12-14T06:23:26;7.10;95.50
13707;DHT22;6925;47.816;13.072;2023-12-14T06:25:55;7.10;95.50
13707;DHT22;6925;47.816;13.072;2023-12-14T06:28:22;7.10;95.40
13707;DHT22;6925;47.816;13.072;2023-12-14T06:30:49;7.10;95.60
13707;DHT22;6925;47.816;13.072;2023-12-14T06:33:16;7.10;95.60
13707;DHT22;6925;47.816;13.072;2023-12-14T06:35:43;7.20;95.60
13707;DHT22;6925;47.816;13.072;2023-12-14T06:38:10;7.20;95.70
13707;DHT22;6925;47.816;13.072;2023-12-14T06:40:38;7.20;95.50
13707;DHT22;6925;47.816;13.072;2023-12-14T06:43:07;7.20;95.50
13707;DHT22;6925;47.816;13.072;2023-12-14T06:45:36;7.20;95.60
13707;DHT22;6925;47.816;13.072;2023-12-14T06:48:04;7.20;95.60
13707;DHT22;6925;47.816;13.072;2023-12-14T06:50:31;7.20;95.50
13707;DHT22;6925;47.816;13.072;2023-12-14T06:52:58;7.20;95.50
13707;DHT22;6925;47.816;13.072;2023-12-14T06:55:25;7.20;95.40
13707;DHT22;6925;47.816;13.072;2023-12-14T06:57:53;7.20;95.50
13707;DHT22;6925;47.816;13.072;2023-12-14T07:00:21;7.20;95.60
13707;DHT22;6925;47.816;13.072;2023-12-14T07:02:48;7.20;95.60
13707;DHT22;6925;47.816;13.072;2023-12-14T07:05:15;7.20;95.60
13707;DHT22;6925;47.816;13.072;2023-12-14T07:07:42;7.20;95.50
13707;DHT22;6925;47.816;13.072;2023-12-14T07:10:10;7.20;95.60
13707;DHT22;6925;47.816;13.072;2023-12-14T07:12:37;7.20;95.70
13707;DHT22;6925;47.816;13.072;2023-12-14T07:15:04;7.30;95.70
13707;DHT22;6925;47.816;13.072;2023-12-14T07:17:33;7.30;95.40
13707;DHT22;6925;47.816;13.072;2023-12-14T07:20:00;7.30;95.50
13707;DHT22;6925;47.816;13.072;2023-12-14T07:22:27;7.30;95.50
13707;DHT22;6925;47.816;13.072;2023-12-14T07:24:55;7.30;95.50
13707;DHT22;6925;47.816;13.072;2023-12-14T07:27:22;7.20;95.30
13707;DHT22;6925;47.816;13.072;2023-12-14T07:29:49;7.20;95.30
13707;DHT22;6925;47.816;13.072;2023-12-14T07:32:16;7.20;95.00
13707;DHT22;6925;47.816;13.072;2023-12-14T07:34:44;7.20;95.00
13707;DHT22;6925;47.816;13.072;2023-12-14T07:37:12;7.20;95.10
13707;DHT22;6925;47.816;13.072;2023-12-14T07:39:39;7.20;95.10
13707;DHT22;6925;47.816;13.072;2023-12-14T07:42:06;7.20;95.10
13707;DHT22;6925;47.816;13.072;2023-12-14T07:44:33;7.20;95.00
13707;DHT22;6925;47.816;13.072;2023-12-14T07:47:00;7.20;95.20
13707;DHT22;6925;47.816;13.072;2023-12-14T07:49:28;7.20;95.20
13707;DHT22;6925;47.816;13.072;2023-12-14T07:51:56;7.20;94.80
13707;DHT22;6925;47.816;13.072;2023-12-14T07:54:23;7.10;94.50
13707;DHT22;6925;47.816;13.072;2023-12-14T07:56:52;7.10;95.10
13707;DHT22;6925;47.816;13.072;2023-12-14T07:59:19;7.10;95.10
13707;DHT22;6925;47.816;13.072;2023-12-14T08:01:46;7.10;95.10
13707;DHT22;6925;47.816;13.072;2023-12-14T08:04:14;7.10;95.40
13707;DHT22;6925;47.816;13.072;2023-12-14T08:06:42;7.20;95.40
13707;DHT22;6925;47.816;13.072;2023-12-14T08:09:10;7.20;95.40
13707;DHT22;6925;47.816;13.072;2023-12-14T08:11:37;7.20;95.00
13707;DHT22;6925;47.816;13.072;2023-12-14T08:14:04;7.20;94.30
13707;DHT22;6925;47.816;13.072;2023-12-14T08:16:31;7.10;94.10
13707;DHT22;6925;47.816;13.072;2023-12-14T08:18:59;7.00;94.50
13707;DHT22;6925;47.816;13.072;2023-12-14T08:21:26;7.00;95.20
13707;DHT22;6925;47.816;13.072;2023-12-14T08:23:54;7.00;95.50
13707;DHT22;6925;47.816;13.072;2023-12-14T08:26:22;7.10;95.50
13707;DHT22;6925;47.816;13.072;2023-12-14T08:28:49;7.10;95.50
13707;DHT22;6925;47.816;13.072;2023-12-14T08:31:17;7.20;95.30
13707;DHT22;6925;47.816;13.072;2023-12-14T08:33:44;7.20;95.20
13707;DHT22;6925;47.816;13.072;2023-12-14T08:36:15;7.20;95.10
13707;DHT22;6925;47.816;13.072;2023-12-14T08:38:42;7.20;94.60
13707;DHT22;6925;47.816;13.072;2023-12-14T08:41:12;7.20;94.80
13707;DHT22;6925;47.816;13.072;2023-12-14T08:43:41;7.20;94.90
13707;DHT22;6925;47.816;13.072;2023-12-14T08:46:08;7.20;95.00
13707;DHT22;6925;47.816;13.072;2023-12-14T08:48:36;7.20;95.20
13707;DHT22;6925;47.816;13.072;2023-12-14T08:51:03;7.30;95.20
13707;DHT22;6925;47.816;13.072;2023-12-14T08:53:30;7.30;95.40
13707;DHT22;6925;47.816;13.072;2023-12-14T08:55:58;7.30;95.50
13707;DHT22;6925;47.816;13.072;2023-12-14T08:58:25;7.30;95.50
13707;DHT22;6925;47.816;13.072;2023-12-14T09:00:53;7.30;95.60
13707;DHT22;6925;47.816;13.072;2023-12-14T09:03:20;7.40;95.90
13707;DHT22;6925;47.816;13.072;2023-12-14T09:05:47;7.40;95.60
13707;DHT22;6925;47.816;13.072;2023-12-14T09:08:15;7.40;95.60
13707;DHT22;6925;47.816;13.072;2023-12-14T09:10:42;7.40;95.50
13707;DHT22;6925;47.816;13.072;2023-12-14T09:13:09;7.40;95.60
13707;DHT22;6925;47.816;13.072;2023-12-14T09:15:36;7.40;95.70
13707;DHT22;6925;47.816;13.072;2023-12-14T09:18:05;7.40;95.40
13707;DHT22;6925;47.816;13.072;2023-12-14T09:20:32;7.40;95.60
13707;DHT22;6925;47.816;13.072;2023-12-14T09:23:00;7.40;95.60
13707;DHT22;6925;47.816;13.072;2023-12-14T09:25:27;7.40;95.50
13707;DHT22;6925;47.816;13.072;2023-12-14T09:27:55;7.40;94.90
13707;DHT22;6925;47.816;13.072;2023-12-14T09:30:22;7.40;95.30
13707;DHT22;6925;47.816;13.072;2023-12-14T09:32:49;7.40;95.10
13707;DHT22;6925;47.816;13.072;2023-12-14T09:35:17;7.50;95.20
13707;DHT22;6925;47.816;13.072;2023-12-14T09:37:45;7.50;95.10
13707;DHT22;6925;47.816;13.072;2023-12-14T09:40:12;7.40;95.20
13707;DHT22;6925;47.816;13.072;2023-12-14T09:42:40;7.50;95.30
13707;DHT22;6925;47.816;13.072;2023-12-14T09:45:08;7.50;95.30
13707;DHT22;6925;47.816;13.072;2023-12-14T09:47:35;7.40;94.30
13707;DHT22;6925;47.816;13.072;2023-12-14T09:50:04;7.40;94.60
13707;DHT22;6925;47.816;13.072;2023-12-14T09:52:32;7.40;95.10
13707;DHT22;6925;47.816;13.072;2023-12-14T09:54:59;7.40;95.10
13707;DHT22;6925;47.816;13.072;2023-12-14T09:57:29;7.30;93.90
13707;DHT22;6925;47.816;13.072;2023-12-14T09:59:56;7.20;94.40
13707;DHT22;6925;47.816;13.072;2023-12-14T10:02:25;7.20;94.40
13707;DHT22;6925;47.816;13.072;2023-12-14T10:04:53;7.20;95.20
13707;DHT22;6925;47.816;13.072;2023-12-14T10:07:21;7.20;94.90
13707;DHT22;6925;47.816;13.072;2023-12-14T10:09:50;7.20;94.80
13707;DHT22;6925;47.816;13.072;2023-12-14T10:12:18;7.30;95.20
13707;DHT22;6925;47.816;13.072;2023-12-14T10:14:48;7.30;94.60
13707;DHT22;6925;47.816;13.072;2023-12-14T10:17:26;7.30;94.80
13707;DHT22;6925;47.816;13.072;2023-12-14T10:19:58;7.40;95.00
13707;DHT22;6925;47.816;13.072;2023-12-14T10:22:29;7.40;95.10
13707;DHT22;6925;47.816;13.072;2023-12-14T10:24:59;7.40;94.30
13707;DHT22;6925;47.816;13.072;2023-12-14T10:27:27;7.40;94.40
13707;DHT22;6925;47.816;13.072;2023-12-14T10:29:55;7.40;94.60
13707;DHT22;6925;47.816;13.072;2023-12-14T10:32:24;7.40;95.00
13707;DHT22;6925;47.816;13.072;2023-12-14T10:34:51;7.50;95.00
13707;DHT22;6925;47.816;13.072;2023-12-14T10:37:18;7.50;94.90
13707;DHT22;6925;47.816;13.072;2023-12-14T10:39:49;7.50;94.50
13707;DHT22;6925;47.816;13.072;2023-12-14T10:42:21;7.60;94.80
13707;DHT22;6925;47.816;13.072;2023-12-14T10:44:51;7.60;94.80
13707;DHT22;6925;47.816;13.072;2023-12-14T10:47:19;7.60;94.80
13707;DHT22;6925;47.816;13.072;2023-12-14T10:49:50;7.60;94.30
13707;DHT22;6925;47.816;13.072;2023-12-14T10:52:17;7.60;94.20
13707;DHT22;6925;47.816;13.072;2023-12-14T10:54:47;7.60;94.40
13707;DHT22;6925;47.816;13.072;2023-12-14T10:57:16;7.70;94.90
13707;DHT22;6925;47.816;13.072;2023-12-14T10:59:44;7.70;94.90
13707;DHT22;6925;47.816;13.072;2023-12-14T11:02:15;7.70;95.10
13707;DHT22;6925;47.816;13.072;2023-12-14T11:05:05;7.80;95.20
13707;DHT22;6925;47.816;13.072;2023-12-14T11:07:49;7.80;95.10
13707;DHT22;6925;47.816;13.072;2023-12-14T11:10:21;7.90;95.10
13707;DHT22;6925;47.816;13.072;2023-12-14T11:12:56;7.90;95.20
13707;DHT22;6925;47.816;13.072;2023-12-14T11:15:25;7.90;94.80
13707;DHT22;6925;47.816;13.072;2023-12-14T11:18:25;7.90;94.20
13707;DHT22;6925;47.816;13.072;2023-12-14T11:20:55;7.80;93.80
13707;DHT22;6925;47.816;13.072;2023-12-14T11:23:30;7.70;93.30
13707;DHT22;6925;47.816;13.072;2023-12-14T11:25:59;7.60;93.70
13707;DHT22;6925;47.816;13.072;2023-12-14T11:28:29;7.50;94.20
13707;DHT22;6925;47.816;13.072;2023-12-14T11:30:57;7.60;94.90
13707;DHT22;6925;47.816;13.072;2023-12-14T11:33:24;7.60;94.90
13707;DHT22;6925;47.816;13.072;2023-12-14T11:35:54;7.70;94.70
13707;DHT22;6925;47.816;13.072;2023-12-14T11:38:21;7.70;94.90
13707;DHT22;6925;47.816;13.072;2023-12-14T11:40:49;7.80;94.90
13707;DHT22;6925;47.816;13.072;2023-12-14T11:43:16;7.90;95.00
13707;DHT22;6925;47.816;13.072;2023-12-14T11:45:46;7.90;95.10
13707;DHT22;6925;47.816;13.072;2023-12-14T11:48:15;7.90;94.90
13707;DHT22;6925;47.816;13.072;2023-12-14T11:50:43;7.90;95.00
13707;DHT22;6925;47.816;13.072;2023-12-14T11:53:10;7.90;94.60
13707;DHT22;6925;47.816;13.072;2023-12-14T11:55:37;7.90;94.70
13707;DHT22;6925;47.816;13.072;2023-12-14T11:58:05;8.00;94.70
13707;DHT22;6925;47.816;13.072;2023-12-14T12:00:34;7.90;94.20
13707;DHT22;6925;47.816;13.072;2023-12-14T12:03:10;7.90;94.70
13707;DHT22;6925;47.816;13.072;2023-12-14T12:05:39;8.00;94.70
13707;DHT22;6925;47.816;13.072;2023-12-14T12:08:08;8.00;94.20
13707;DHT22;6925;47.816;13.072;2023-12-14T12:10:35;7.90;94.10
13707;DHT22;6925;47.816;13.072;2023-12-14T12:13:03;7.90;93.80
13707;DHT22;6925;47.816;13.072;2023-12-14T12:15:31;7.90;94.10
13707;DHT22;6925;47.816;13.072;2023-12-14T12:18:03;7.90;94.00
13707;DHT22;6925;47.816;13.072;2023-12-14T12:20:31;7.80;94.00
13707;DHT22;6925;47.816;13.072;2023-12-14T12:22:59;7.80;93.90
13707;DHT22;6925;47.816;13.072;2023-12-14T12:25:27;7.80;93.90
13707;DHT22;6925;47.816;13.072;2023-12-14T12:27:54;7.80;94.40
13707;DHT22;6925;47.816;13.072;2023-12-14T12:30:22;7.80;94.20
13707;DHT22;6925;47.816;13.072;2023-12-14T12:32:49;7.80;93.50
13707;DHT22;6925;47.816;13.072;2023-12-14T12:35:17;7.70;93.70
13707;DHT22;6925;47.816;13.072;2023-12-14T12:37:44;7.70;94.30
13707;DHT22;6925;47.816;13.072;2023-12-14T12:40:13;7.70;93.90
13707;DHT22;6925;47.816;13.072;2023-12-14T12:42:45;7.70;94.00
13707;DHT22;6925;47.816;13.072;2023-12-14T12:45:14;7.80;94.40
13707;DHT22;6925;47.816;13.072;2023-12-14T12:47:42;7.80;94.10
13707;DHT22;6925;47.816;13.072;2023-12-14T12:50:10;7.80;94.10
13707;DHT22;6925;47.816;13.072;2023-12-14T12:52:37;7.90;93.90
13707;DHT22;6925;47.816;13.072;2023-12-14T12:55:05;7.80;93.30
13707;DHT22;6925;47.816;13.072;2023-12-14T12:57:34;7.80;93.70
13707;DHT22;6925;47.816;13.072;2023-12-14T13:00:01;7.70;93.70
13707;DHT22;6925;47.816;13.072;2023-12-14T13:02:29;7.70;93.20
13707;DHT22;6925;47.816;13.072;2023-12-14T13:04:56;7.60;93.00
13707;DHT22;6925;47.816;13.072;2023-12-14T13:07:24;7.50;93.20
13707;DHT22;6925;47.816;13.072;2023-12-14T13:09:51;7.50;93.50
13707;DHT22;6925;47.816;13.072;2023-12-14T13:12:18;7.50;93.80
13707;DHT22;6925;47.816;13.072;2023-12-14T13:14:46;7.50;93.80
13707;DHT22;6925;47.816;13.072;2023-12-14T13:17:14;7.60;94.10
13707;DHT22;6925;47.816;13.072;2023-12-14T13:19:43;7.60;93.70
13707;DHT22;6925;47.816;13.072;2023-12-14T13:22:10;7.60;93.70
13707;DHT22;6925;47.816;13.072;2023-12-14T13:24:38;7.60;94.00
13707;DHT22;6925;47.816;13.072;2023-12-14T13:27:05;7.60;93.60
13707;DHT22;6925;47.816;13.072;2023-12-14T13:29:32;7.60;93.60
13707;DHT22;6925;47.816;13.072;2023-12-14T13:32:02;7.60;93.60
13707;DHT22;6925;47.816;13.072;2023-12-14T13:34:29;7.70;93.40
13707;DHT22;6925;47.816;13.072;2023-12-14T13:36:59;7.60;93.30
13707;DHT22;6925;47.816;13.072;2023-12-14T13:39:27;7.60;93.50
13707;DHT22;6925;47.816;13.072;2023-12-14T13:41:56;7.60;93.70
13707;DHT22;6925;47.816;13.072;2023-12-14T13:44:23;7.60;93.70
13707;DHT22;6925;47.816;13.072;2023-12-14T13:46:50;7.50;93.30
13707;DHT22;6925;47.816;13.072;2023-12-14T13:49:19;7.50;92.90
13707;DHT22;6925;47.816;13.072;2023-12-14T13:51:46;7.40;93.10
13707;DHT22;6925;47.816;13.072;2023-12-14T13:54:13;7.40;93.60
13707;DHT22;6925;47.816;13.072;2023-12-14T13:56:40;7.30;93.30
13707;DHT22;6925;47.816;13.072;2023-12-14T13:59:07;7.30;92.70
13707;DHT22;6925;47.816;13.072;2023-12-14T14:01:34;7.20;93.00
13707;DHT22;6925;47.816;13.072;2023-12-14T14:04:02;7.20;93.40
13707;DHT22;6925;47.816;13.072;2023-12-14T14:06:30;7.30;93.70
13707;DHT22;6925;47.816;13.072;2023-12-14T14:08:57;7.30;93.20
13707;DHT22;6925;47.816;13.072;2023-12-14T14:11:24;7.30;92.80
13707;DHT22;6925;47.816;13.072;2023-12-14T14:13:51;7.30;92.70
13707;DHT22;6925;47.816;13.072;2023-12-14T14:16:19;7.30;92.90
13707;DHT22;6925;47.816;13.072;2023-12-14T14:18:46;7.30;93.30
13707;DHT22;6925;47.816;13.072;2023-12-14T14:21:13;7.40;93.40
13707;DHT22;6925;47.816;13.072;2023-12-14T14:23:42;7.40;93.30
13707;DHT22;6925;47.816;13.072;2023-12-14T14:26:10;7.50;93.20
13707;DHT22;6925;47.816;13.072;2023-12-14T14:28:37;7.50;92.80
13707;DHT22;6925;47.816;13.072;2023-12-14T14:31:04;7.50;92.60
13707;DHT22;6925;47.816;13.072;2023-12-14T14:33:31;7.50;92.90
13707;DHT22;6925;47.816;13.072;2023-12-14T14:35:58;7.50;92.70
13707;DHT22;6925;47.816;13.072;2023-12-14T14:38:30;7.60;92.40
13707;DHT22;6925;47.816;13.072;2023-12-14T14:40:59;7.60;92.50
13707;DHT22;6925;47.816;13.072;2023-12-14T14:43:26;7.60;93.10
13707;DHT22;6925;47.816;13.072;2023-12-14T14:45:54;7.60;93.00
13707;DHT22;6925;47.816;13.072;2023-12-14T14:48:21;7.60;92.80
13707;DHT22;6925;47.816;13.072;2023-12-14T14:50:47;7.60;92.80
13707;DHT22;6925;47.816;13.072;2023-12-14T14:53:14;7.60;93.00
13707;DHT22;6925;47.816;13.072;2023-12-14T14:55:41;7.60;93.00
13707;DHT22;6925;47.816;13.072;2023-12-14T14:58:10;7.60;93.00
13707;DHT22;6925;47.816;13.072;2023-12-14T15:00:37;7.70;92.90
13707;DHT22;6925;47.816;13.072;2023-12-14T15:03:05;7.70;92.90
13707;DHT22;6925;47.816;13.072;2023-12-14T15:05:35;7.70;92.80
13707;DHT22;6925;47.816;13.072;2023-12-14T15:08:02;7.70;92.90
13707;DHT22;6925;47.816;13.072;2023-12-14T15:10:31;7.70;92.60
13707;DHT22;6925;47.816;13.072;2023-12-14T15:12:58;7.60;92.70
13707;DHT22;6925;47.816;13.072;2023-12-14T15:15:27;7.60;92.60
13707;DHT22;6925;47.816;13.072;2023-12-14T15:17:54;7.60;92.70
13707;DHT22;6925;47.816;13.072;2023-12-14T15:20:21;7.60;92.70
13707;DHT22;6925;47.816;13.072;2023-12-14T15:22:48;7.60;92.50
13707;DHT22;6925;47.816;13.072;2023-12-14T15:25:16;7.50;92.40
13707;DHT22;6925;47.816;13.072;2023-12-14T15:27:44;7.60;92.60
13707;DHT22;6925;47.816;13.072;2023-12-14T15:30:11;7.60;92.60
13707;DHT22;6925;47.816;13.072;2023-12-14T15:32:40;7.60;92.30
13707;DHT22;6925;47.816;13.072;2023-12-14T15:35:08;7.60;92.40
13707;DHT22;6925;47.816;13.072;2023-12-14T15:37:35;7.60;92.50
13707;DHT22;6925;47.816;13.072;2023-12-14T15:40:02;7.60;92.20
13707;DHT22;6925;47.816;13.072;2023-12-14T15:42:30;7.50;92.00
13707;DHT22;6925;47.816;13.072;2023-12-14T15:44:57;7.40;92.20
13707;DHT22;6925;47.816;13.072;2023-12-14T15:47:25;7.40;92.70
13707;DHT22;6925;47.816;13.072;2023-12-14T15:49:53;7.40;92.90